createdAt,value
2023-03-27T00:01:43.574Z,91389.91
2023-03-27T00:04:12.134Z,91398.66
2023-03-27T00:06:48.882Z,91398.28
2023-03-27T00:09:19.967Z,91404.84
2023-03-27T00:11:49.138Z,91412.09
2023-03-27T00:14:17.853Z,91415.88
2023-03-27T00:16:47.881Z,91421.22
2023-03-27T00:19:16.982Z,91420.03
2023-03-27T00:21:46.141Z,91425.41
2023-03-27T00:24:15.945Z,91426.56
2023-03-27T00:26:44.583Z,91435.72
2023-03-27T00:29:14.161Z,91437.25
2023-03-27T00:31:42.604Z,91439.13
2023-03-27T00:34:13.467Z,91437.25
2023-03-27T00:36:43.771Z,91438.75
2023-03-27T00:39:12.262Z,91450.97
2023-03-27T00:41:40.692Z,91444.09
2023-03-27T00:44:25.382Z,91450.19
2023-03-27T00:46:57.114Z,91453.66
2023-03-27T00:49:30.013Z,91460.13
2023-03-27T00:51:59.241Z,91464.69
2023-03-27T00:54:32.287Z,91467.31
2023-03-27T00:57:06.180Z,91463.91
2023-03-27T00:59:40.080Z,91466.94
2023-03-27T01:02:10.171Z,91469.59
2023-03-27T01:04:41.400Z,91467.78
2023-03-27T01:07:11.978Z,91468.53
2023-03-27T01:09:40.569Z,91473.41
2023-03-27T01:12:21.479Z,91489.03
2023-03-27T01:15:07.451Z,91482.13
2023-03-27T01:17:51.874Z,91491.31
2023-03-27T01:21:19.503Z,91495.91
2023-03-27T01:24:52.435Z,91501.28
2023-03-27T01:27:25.854Z,91507.75
2023-03-27T01:30:12.052Z,91511.97
2023-03-27T01:33:30.278Z,91511.53
2023-03-27T01:36:26.599Z,91520.75
2023-03-27T01:39:19.879Z,91531.41
2023-03-27T01:41:56.854Z,91525.31
2023-03-27T01:44:36.434Z,91531.03
2023-03-27T01:47:21.667Z,91538.69
2023-03-27T01:49:56.690Z,91539.41
2023-03-27T01:52:31.128Z,91541.28
2023-03-27T01:55:05.667Z,91550.44
2023-03-27T01:57:49.335Z,91555.44
2023-03-27T02:00:23.268Z,91553.56
2023-03-27T02:02:58.285Z,91557.31
2023-03-27T02:05:35.780Z,91567.66
2023-03-27T02:08:13.800Z,91574.16
2023-03-27T02:10:49.027Z,91571.75
2023-03-27T02:13:21.733Z,91575.16
2023-03-27T02:15:51.918Z,91575.50
2023-03-27T02:18:27.754Z,91577.88
2023-03-27T02:20:56.538Z,91581.31
2023-03-27T02:23:25.098Z,91588.16
2023-03-27T02:25:55.488Z,91590.06
2023-03-27T02:28:47.901Z,91591.47
2023-03-27T02:31:41.513Z,91593.50
2023-03-27T02:34:46.805Z,91595.66
2023-03-27T02:37:32.372Z,91599.06
2023-03-27T02:40:15.172Z,91606.06
2023-03-27T02:43:01.138Z,91606.97
2023-03-27T02:45:42.198Z,91608.59
2023-03-27T02:48:17.890Z,91614.03
2023-03-27T02:50:53.402Z,91620.03
2023-03-27T02:53:25.556Z,91610.59
2023-03-27T02:55:57.516Z,91622.47
2023-03-27T02:58:36.473Z,91627.69
2023-03-27T03:01:09.617Z,91624.66
2023-03-27T03:03:43.743Z,91641.03
2023-03-27T03:06:14.556Z,91641.66
2023-03-27T03:08:43.296Z,91644.38
2023-03-27T03:11:15.148Z,91653.84
2023-03-27T03:13:44.960Z,91660.72
2023-03-27T03:16:13.528Z,91669.09
2023-03-27T03:18:41.974Z,91663.31
2023-03-27T03:21:10.716Z,91680.41
2023-03-27T03:23:39.439Z,91684.66
2023-03-27T03:26:08.785Z,91688.41
2023-03-27T03:28:38.252Z,91692.22
2023-03-27T03:31:10.923Z,91703.97
2023-03-27T03:33:39.745Z,91705.91
2023-03-27T03:36:09.816Z,91716.50
2023-03-27T03:38:38.517Z,91727.09
2023-03-27T03:41:08.114Z,91735.16
2023-03-27T03:43:36.634Z,91742.19
2023-03-27T03:46:05.589Z,91747.53
2023-03-27T03:48:35.453Z,91745.94
2023-03-27T03:51:03.984Z,91765.56
2023-03-27T03:53:32.443Z,91756.97
2023-03-27T03:56:01.788Z,91765.38
2023-03-27T03:58:34.554Z,91766.41
2023-03-27T04:01:04.015Z,91776.44
2023-03-27T04:03:34.107Z,91783.97
2023-03-27T04:06:05.683Z,91778.97
2023-03-27T04:08:35.363Z,91783.81
2023-03-27T04:11:04.464Z,91796.78
2023-03-27T04:13:33.727Z,91800.19
2023-03-27T04:16:02.564Z,91805.38
2023-03-27T04:18:32.907Z,91816.75
2023-03-27T04:21:03.353Z,91812.00
2023-03-27T04:23:31.817Z,91812.13
2023-03-27T04:26:02.071Z,91818.59
2023-03-27T04:28:34.601Z,91821.38
2023-03-27T04:31:06.440Z,91811.88
2023-03-27T04:33:35.826Z,91829.84
2023-03-27T04:36:07.817Z,91838.88
2023-03-27T04:38:38.193Z,91844.69
2023-03-27T04:41:07.412Z,91844.56
2023-03-27T04:43:36.952Z,91853.34
2023-03-27T04:46:07.349Z,91863.00
2023-03-27T04:48:39.243Z,91864.84
2023-03-27T04:51:09.720Z,91876.19
2023-03-27T04:53:38.799Z,91890.22
2023-03-27T04:56:09.837Z,91886.13
2023-03-27T04:58:41.072Z,91890.75
2023-03-27T05:01:10.337Z,91904.22
2023-03-27T05:03:39.298Z,91904.28
2023-03-27T05:06:10.601Z,91908.69
2023-03-27T05:08:39.044Z,91916.56
2023-03-27T05:11:07.849Z,91924.47
2023-03-27T05:13:36.329Z,91943.47
2023-03-27T05:16:05.584Z,91953.09
2023-03-27T05:18:34.063Z,91949.81
2023-03-27T05:21:02.586Z,91964.50
2023-03-27T05:23:32.696Z,91967.44
2023-03-27T05:26:03.657Z,91969.97
2023-03-27T05:31:22.351Z,91980.41
2023-03-27T05:33:51.713Z,91992.22
2023-03-27T05:36:22.137Z,91989.38
2023-03-27T05:38:53.205Z,91996.09
2023-03-27T05:41:22.077Z,91994.31
2023-03-27T05:43:51.708Z,92005.81
2023-03-27T05:46:21.724Z,91998.59
2023-03-27T05:48:50.962Z,91991.88
2023-03-27T05:51:19.597Z,92011.06
2023-03-27T05:53:48.092Z,92006.13
2023-03-27T05:56:17.900Z,92013.69
2023-03-27T05:58:50.498Z,92031.81
2023-03-27T06:01:18.964Z,92032.31
2023-03-27T06:03:49.417Z,92011.91
2023-03-27T06:06:18.030Z,92021.59
2023-03-27T06:08:46.461Z,92034.97
2023-03-27T06:11:17.179Z,92040.72
2023-03-27T06:13:45.737Z,92048.28
2023-03-27T06:16:15.120Z,92035.41
2023-03-27T06:18:43.553Z,92040.81
2023-03-27T06:21:12.831Z,92054.22
2023-03-27T06:23:41.683Z,92071.22
2023-03-27T06:26:10.122Z,92069.00
2023-03-27T06:28:41.242Z,92079.38
2023-03-27T06:31:09.990Z,92091.25
2023-03-27T06:33:40.683Z,92087.00
2023-03-27T06:36:11.088Z,92101.81
2023-03-27T06:38:39.672Z,92095.63
2023-03-27T06:41:10.240Z,92102.00
2023-03-27T06:43:40.102Z,92104.06
2023-03-27T06:46:08.655Z,92114.78
2023-03-27T06:48:37.749Z,92119.06
2023-03-27T06:51:07.562Z,92134.50
2023-03-27T06:53:38.234Z,92143.59
2023-03-27T06:56:08.483Z,92137.25
2023-03-27T06:58:37.409Z,92149.78
2023-03-27T07:01:08.386Z,92158.69
2023-03-27T07:03:37.655Z,92172.75
2023-03-27T07:06:07.433Z,92168.63
2023-03-27T07:08:36.482Z,92187.53
2023-03-27T07:11:11.542Z,92201.50
2023-03-27T07:13:42.689Z,92190.81
2023-03-27T07:16:13.194Z,92197.94
2023-03-27T07:18:42.311Z,92213.78
2023-03-27T07:21:12.958Z,92219.50
2023-03-27T07:23:41.543Z,92216.63
2023-03-27T07:26:10.025Z,92220.38
2023-03-27T07:28:39.554Z,92231.81
2023-03-27T07:31:29.305Z,92237.38
2023-03-27T07:34:02.655Z,92234.78
2023-03-27T07:36:31.246Z,92240.47
2023-03-27T07:39:00.974Z,92248.19
2023-03-27T07:41:30.453Z,92254.34
2023-03-27T07:43:59.001Z,92255.81
2023-03-27T07:46:28.998Z,92256.16
2023-03-27T07:48:58.021Z,92266.13
2023-03-27T07:51:27.524Z,92273.13
2023-03-27T07:53:58.763Z,92282.69
2023-03-27T07:56:28.126Z,92279.78
2023-03-27T07:58:56.572Z,92282.03
2023-03-27T08:01:26.449Z,92293.31
2023-03-27T08:03:57.430Z,92281.22
2023-03-27T08:06:26.179Z,92290.41
2023-03-27T08:08:55.326Z,92292.50
2023-03-27T08:11:30.657Z,92284.47
2023-03-27T08:14:00.095Z,92283.38
2023-03-27T08:16:30.470Z,92288.88
2023-03-27T08:19:01.812Z,92285.25
2023-03-27T08:21:33.333Z,92298.97
2023-03-27T08:24:05.228Z,92297.88
2023-03-27T08:26:33.828Z,92301.69
2023-03-27T08:29:02.304Z,92323.22
2023-03-27T08:31:31.471Z,92322.50
2023-03-27T08:34:01.483Z,92328.22
2023-03-27T08:36:32.490Z,92338.50
2023-03-27T08:39:03.006Z,92347.34
2023-03-27T08:41:39.134Z,92352.75
2023-03-27T08:44:12.529Z,92354.22
2023-03-27T08:46:50.649Z,92365.19
2023-03-27T08:49:22.258Z,92353.03
2023-03-27T08:51:56.011Z,92349.13
2023-03-27T08:54:27.217Z,92362.03
2023-03-27T08:56:56.665Z,92357.63
2023-03-27T08:59:29.470Z,92366.19
2023-03-27T09:02:06.120Z,92371.66
2023-03-27T09:04:48.647Z,92372.50
2023-03-27T09:07:24.182Z,92375.03
2023-03-27T09:10:01.947Z,92380.22
2023-03-27T09:12:47.651Z,92396.44
2023-03-27T09:15:22.498Z,92406.50
2023-03-27T09:17:54.633Z,92409.47
2023-03-27T09:20:32.111Z,92410.53
2023-03-27T09:23:11.001Z,92407.69
2023-03-27T09:25:42.769Z,92418.03
2023-03-27T09:28:21.741Z,92415.50
2023-03-27T09:30:50.205Z,92418.16
2023-03-27T09:33:19.791Z,92426.84
2023-03-27T09:35:49.721Z,92436.81
2023-03-27T09:38:29.844Z,92438.59
2023-03-27T09:41:02.952Z,92441.75
2023-03-27T09:43:41.575Z,92440.06
2023-03-27T09:46:11.624Z,92441.50
2023-03-27T09:48:47.049Z,92447.00
2023-03-27T09:51:39.344Z,92449.09
2023-03-27T09:54:08.360Z,92440.63
2023-03-27T09:56:39.734Z,92447.69
2023-03-27T09:59:24.241Z,92454.75
2023-03-27T10:01:54.815Z,92452.13
2023-03-27T10:04:25.670Z,92447.97
2023-03-27T10:07:02.535Z,92460.66
2023-03-27T10:09:34.358Z,92457.72
2023-03-27T10:12:12.247Z,92460.00
2023-03-27T10:14:43.630Z,92478.84
2023-03-27T10:17:24.309Z,92471.25
2023-03-27T10:19:58.814Z,92480.75
2023-03-27T10:22:32.458Z,92484.47
2023-03-27T10:25:04.796Z,92494.25
2023-03-27T10:27:36.443Z,92497.19
2023-03-27T10:30:29.692Z,92501.56
2023-03-27T10:32:58.211Z,92497.63
2023-03-27T10:35:34.691Z,92500.47
2023-03-27T10:38:12.653Z,92500.41
2023-03-27T10:40:43.354Z,92514.00
2023-03-27T10:43:15.594Z,92514.47
2023-03-27T10:45:50.333Z,92521.31
2023-03-27T10:48:43.273Z,92505.06
2023-03-27T10:51:35.939Z,92517.38
2023-03-27T10:54:16.827Z,92515.75
2023-03-27T10:56:55.295Z,92522.13
2023-03-27T10:59:41.083Z,92520.00
2023-03-27T11:02:18.492Z,92523.16
2023-03-27T11:04:53.068Z,92544.59
2023-03-27T11:07:28.621Z,92545.00
2023-03-27T11:10:05.020Z,92548.06
2023-03-27T11:12:37.230Z,92556.47
2023-03-27T11:15:14.135Z,92556.72
2023-03-27T11:17:49.288Z,92555.91
2023-03-27T11:20:26.247Z,92556.13
2023-03-27T11:23:01.295Z,92559.47
2023-03-27T11:25:41.250Z,92553.59
2023-03-27T11:28:21.368Z,92569.41
2023-03-27T11:30:57.393Z,92563.66
2023-03-27T11:33:38.636Z,92563.19
2023-03-27T11:36:29.982Z,92568.09
2023-03-27T11:39:15.441Z,92569.09
2023-03-27T11:41:51.037Z,92569.50
2023-03-27T11:44:19.593Z,92574.13
2023-03-27T11:47:10.223Z,92565.13
2023-03-27T11:50:11.407Z,92570.47
2023-03-27T11:52:53.660Z,92566.44
2023-03-27T11:55:32.655Z,92573.53
2023-03-27T11:58:19.183Z,92590.06
2023-03-27T12:00:58.845Z,92585.16
2023-03-27T12:04:19.618Z,92583.28
2023-03-27T12:07:04.014Z,92579.69
2023-03-27T12:09:47.738Z,92580.97
2023-03-27T12:12:34.839Z,92586.31
2023-03-27T12:15:24.210Z,92580.16
2023-03-27T12:18:02.780Z,92581.47
2023-03-27T12:21:06.613Z,92596.84
2023-03-27T12:23:51.645Z,92594.56
2023-03-27T12:26:43.730Z,92604.22
2023-03-27T12:29:30.859Z,92610.13
2023-03-27T12:32:18.112Z,92610.75
2023-03-27T12:34:54.517Z,92611.63
2023-03-27T12:37:30.162Z,92625.72
2023-03-27T12:40:00.289Z,92627.06
2023-03-27T12:42:52.003Z,92619.50
2023-03-27T12:45:23.903Z,92604.09
2023-03-27T12:48:18.989Z,92619.28
2023-03-27T12:50:56.889Z,92621.53
2023-03-27T12:53:56.443Z,92628.19
2023-03-27T12:56:33.627Z,92630.22
2023-03-27T12:59:06.537Z,92631.59
2023-03-27T13:02:01.535Z,92631.66
2023-03-27T13:05:26.980Z,92627.31
2023-03-27T13:08:15.615Z,92624.53
2023-03-27T13:10:57.952Z,92631.81
2023-03-27T13:14:27.486Z,92634.41
2023-03-27T13:17:35.849Z,92632.59
2023-03-27T13:20:20.062Z,92625.19
2023-03-27T13:23:11.983Z,92631.59
2023-03-27T13:26:01.087Z,92630.03
2023-03-27T13:28:37.254Z,92636.88
2023-03-27T13:31:09.518Z,92643.28
2023-03-27T13:34:12.619Z,92638.81
2023-03-27T13:36:48.853Z,92644.63
2023-03-27T13:39:24.087Z,92640.41
2023-03-27T13:42:10.258Z,92637.06
2023-03-27T13:44:58.923Z,92646.53
2023-03-27T13:48:01.756Z,92643.28
2023-03-27T13:51:24.514Z,92655.59
2023-03-27T13:54:40.689Z,92658.97
2023-03-27T13:57:28.641Z,92649.84
2023-03-27T14:00:28.198Z,92655.69
2023-03-27T14:04:03.436Z,92655.13
2023-03-27T14:07:17.612Z,92651.16
2023-03-27T14:10:11.506Z,92657.97
2023-03-27T14:12:56.367Z,92660.34
2023-03-27T14:16:01.471Z,92667.78
2023-03-27T14:19:10.732Z,92666.72
2023-03-27T14:21:53.761Z,92659.47
2023-03-27T14:24:32.460Z,92651.69
2023-03-27T14:27:04.217Z,92649.31
2023-03-27T14:29:34.887Z,92650.31
2023-03-27T14:32:05.166Z,92656.69
2023-03-27T14:34:51.049Z,92651.28
2023-03-27T14:37:32.138Z,92651.00
2023-03-27T14:40:02.030Z,92656.38
2023-03-27T14:42:33.574Z,92655.22
2023-03-27T14:45:20.652Z,92655.66
2023-03-27T14:47:53.048Z,92661.78
2023-03-27T14:50:21.703Z,92660.03
2023-03-27T14:52:54.557Z,92664.53
2023-03-27T14:55:26.965Z,92663.09
2023-03-27T14:58:02.463Z,92668.78
2023-03-27T15:00:35.115Z,92667.16
2023-03-27T15:03:08.837Z,92679.91
2023-03-27T15:05:57.298Z,92692.31
2023-03-27T15:08:28.986Z,92711.41
2023-03-27T15:10:57.615Z,92711.94
2023-03-27T15:13:33.826Z,92704.41
2023-03-27T15:16:03.028Z,92696.59
2023-03-27T15:18:36.335Z,92693.19
2023-03-27T15:21:08.305Z,92698.22
2023-03-27T15:23:43.551Z,92684.19
2023-03-27T15:26:20.277Z,92680.16
2023-03-27T15:29:04.391Z,92681.81
2023-03-27T15:31:35.681Z,92679.13
2023-03-27T15:34:09.309Z,92677.53
2023-03-27T15:36:39.534Z,92675.97
2023-03-27T15:39:08.465Z,92684.41
2023-03-27T15:41:44.896Z,92685.56
2023-03-27T15:44:19.881Z,92664.22
2023-03-27T15:46:55.831Z,92670.75
2023-03-27T15:49:29.729Z,92678.19
2023-03-27T15:52:00.184Z,92681.59
2023-03-27T15:54:33.273Z,92680.44
2023-03-27T15:57:09.862Z,92691.84
2023-03-27T15:59:52.576Z,92687.72
2023-03-27T16:02:23.447Z,92678.28
2023-03-27T16:04:55.060Z,92690.44
2023-03-27T16:07:27.749Z,92683.19
2023-03-27T16:09:59.804Z,92683.44
2023-03-27T16:12:33.849Z,92686.53
2023-03-27T16:15:08.148Z,92690.81
2023-03-27T16:17:46.135Z,92695.84
2023-03-27T16:20:37.375Z,92695.16
2023-03-27T16:23:06.502Z,92692.81
2023-03-27T16:25:35.116Z,92710.38
2023-03-27T16:28:03.827Z,92709.84
2023-03-27T16:30:36.386Z,92727.06
2023-03-27T16:33:10.178Z,92733.19
2023-03-27T16:35:38.862Z,92735.16
2023-03-27T16:38:07.549Z,92735.47
2023-03-27T16:40:36.713Z,92740.56
2023-03-27T16:43:05.145Z,92733.03
2023-03-27T16:45:36.060Z,92740.59
2023-03-27T16:48:05.243Z,92740.13
2023-03-27T16:50:35.097Z,92747.91
2023-03-27T16:53:03.680Z,92744.81
2023-03-27T16:55:32.085Z,92751.69
2023-03-27T16:58:00.850Z,92750.78
2023-03-27T17:00:29.289Z,92742.56
2023-03-27T17:02:59.194Z,92754.69
2023-03-27T17:05:33.805Z,92761.44
2023-03-27T17:08:04.562Z,92768.22
2023-03-27T17:10:34.482Z,92765.03
2023-03-27T17:13:02.960Z,92770.91
2023-03-27T17:15:31.614Z,92766.56
2023-03-27T17:18:01.449Z,92773.00
2023-03-27T17:20:30.173Z,92772.34
2023-03-27T17:22:59.028Z,92775.47
2023-03-27T17:25:27.941Z,92781.00
2023-03-27T17:27:57.233Z,92788.00
2023-03-27T17:30:38.055Z,92793.66
2023-03-27T17:33:11.550Z,92784.63
2023-03-27T17:35:40.647Z,92798.59
2023-03-27T17:38:10.362Z,92809.38
2023-03-27T17:40:41.479Z,92818.66
2023-03-27T17:43:10.597Z,92814.66
2023-03-27T17:45:41.837Z,92820.03
2023-03-27T17:48:12.736Z,92820.69
2023-03-27T17:50:41.543Z,92831.84
2023-03-27T17:53:10.000Z,92833.69
2023-03-27T17:55:39.087Z,92840.47
2023-03-27T17:58:10.002Z,92843.47
2023-03-27T18:00:39.396Z,92833.09
2023-03-27T18:03:08.903Z,92837.25
2023-03-27T18:05:40.124Z,92841.66
2023-03-27T18:08:11.981Z,92851.56
2023-03-27T18:10:45.506Z,92849.91
2023-03-27T18:13:14.196Z,92853.69
2023-03-27T18:15:42.900Z,92850.72
2023-03-27T18:18:11.784Z,92856.41
2023-03-27T18:20:41.908Z,92858.00
2023-03-27T18:23:10.599Z,92858.78
2023-03-27T18:25:41.986Z,92864.28
2023-03-27T18:28:11.350Z,92861.50
2023-03-27T18:30:40.173Z,92865.47
2023-03-27T18:33:08.750Z,92862.81
2023-03-27T18:35:37.552Z,92868.19
2023-03-27T18:38:07.812Z,92865.41
2023-03-27T18:40:36.775Z,92872.66
2023-03-27T18:43:05.493Z,92881.22
2023-03-27T18:45:34.795Z,92883.41
2023-03-27T18:48:03.334Z,92880.44
2023-03-27T18:50:32.061Z,92889.16
2023-03-27T18:53:00.692Z,92890.09
2023-03-27T18:55:31.087Z,92895.41
2023-03-27T18:57:59.528Z,92894.75
2023-03-27T19:00:27.997Z,92889.25
2023-03-27T19:02:56.973Z,92895.97
2023-03-27T19:05:25.629Z,92895.97
2023-03-27T19:07:57.909Z,92898.72
2023-03-27T19:10:26.623Z,92892.84
2023-03-27T19:12:56.659Z,92898.03
2023-03-27T19:15:25.086Z,92893.00
2023-03-27T19:17:53.986Z,92891.28
2023-03-27T19:20:22.704Z,92885.38
2023-03-27T19:22:51.679Z,92883.34
2023-03-27T19:25:21.532Z,92886.16
2023-03-27T19:27:49.948Z,92886.19
2023-03-27T19:30:19.969Z,92883.94
2023-03-27T19:32:48.724Z,92880.41
2023-03-27T19:35:17.321Z,92884.13
2023-03-27T19:37:45.972Z,92890.88
2023-03-27T19:40:15.409Z,92891.59
2023-03-27T19:42:44.218Z,92892.28
2023-03-27T19:45:13.123Z,92886.28
2023-03-27T19:47:43.633Z,92888.31
2023-03-27T19:50:14.534Z,92904.69
2023-03-27T19:52:49.430Z,92902.84
2023-03-27T19:55:25.569Z,92898.84
2023-03-27T19:57:55.033Z,92910.50
2023-03-27T20:00:23.701Z,92907.59
2023-03-27T20:02:53.829Z,92910.84
2023-03-27T20:05:22.457Z,92911.16
2023-03-27T20:07:50.908Z,92913.38
2023-03-27T20:10:20.310Z,92901.09
2023-03-27T20:12:48.841Z,92907.56
2023-03-27T20:15:17.536Z,92907.44
2023-03-27T20:20:35.835Z,92904.72
2023-03-27T20:23:04.360Z,92909.91
2023-03-27T20:25:33.482Z,92913.53
2023-03-27T20:28:03.055Z,92914.97
2023-03-27T20:30:32.699Z,92921.84
2023-03-27T20:33:03.178Z,92922.03
2023-03-27T20:35:33.275Z,92929.44
2023-03-27T20:38:05.729Z,92928.13
2023-03-27T20:40:52.818Z,92922.47
2023-03-27T20:43:23.151Z,92917.97
2023-03-27T20:45:53.108Z,92920.31
2023-03-27T20:48:22.179Z,92929.22
2023-03-27T20:50:53.070Z,92933.63
2023-03-27T20:53:30.472Z,92934.72
2023-03-27T20:56:03.541Z,92938.78
2023-03-27T20:58:34.770Z,92935.97
2023-03-27T21:01:05.034Z,92942.84
2023-03-27T21:03:35.110Z,92940.94
2023-03-27T21:06:07.273Z,92950.31
2023-03-27T21:08:37.592Z,92962.34
2023-03-27T21:11:07.114Z,92962.78
2023-03-27T21:13:35.867Z,92959.19
2023-03-27T21:16:05.585Z,92956.84
2023-03-27T21:18:34.298Z,92958.09
2023-03-27T21:21:02.805Z,92956.69
2023-03-27T21:23:31.387Z,92949.19
2023-03-27T21:26:01.839Z,92949.03
2023-03-27T21:28:30.702Z,92956.00
2023-03-27T21:30:59.808Z,92953.00
2023-03-27T21:33:28.243Z,92952.00
2023-03-27T21:35:57.009Z,92958.47
2023-03-27T21:38:25.676Z,92958.03
2023-03-27T21:40:54.147Z,92959.75
2023-03-27T21:43:24.319Z,92960.84
2023-03-27T21:45:53.468Z,92955.38
2023-03-27T21:48:22.015Z,92958.25
2023-03-27T21:50:50.609Z,92955.34
2023-03-27T21:53:19.050Z,92953.41
2023-03-27T21:55:47.957Z,92948.88
2023-03-27T21:58:16.429Z,92959.97
2023-03-27T22:00:47.738Z,92964.34
2023-03-27T22:03:16.691Z,92958.09
2023-03-27T22:05:54.348Z,92956.31
2023-03-27T22:08:29.828Z,92964.19
2023-03-27T22:10:59.983Z,92966.00
2023-03-27T22:13:28.812Z,92968.81
2023-03-27T22:15:59.131Z,92965.34
2023-03-27T22:18:28.283Z,92974.66
2023-03-27T22:20:56.702Z,92984.56
2023-03-27T22:23:25.351Z,92980.72
2023-03-27T22:25:54.463Z,92983.25
2023-03-27T22:28:22.893Z,92992.41
2023-03-27T22:30:52.744Z,92991.44
2023-03-27T22:33:22.790Z,92996.19
2023-03-27T22:35:51.713Z,92999.19
2023-03-27T22:38:20.219Z,93005.28
2023-03-27T22:40:48.695Z,93003.09
2023-03-27T22:43:23.119Z,93006.75
2023-03-27T22:45:52.884Z,93003.25
2023-03-27T22:48:22.721Z,93008.25
2023-03-27T22:50:56.288Z,93009.50
2023-03-27T22:53:28.652Z,93015.16
2023-03-27T22:56:00.216Z,93022.69
2023-03-27T22:58:29.907Z,93026.28
2023-03-27T23:00:59.307Z,93032.38
2023-03-27T23:03:29.547Z,93029.31
2023-03-27T23:05:58.327Z,93042.41
2023-03-27T23:08:29.316Z,93045.38
2023-03-27T23:11:00.307Z,93043.19
2023-03-27T23:13:31.818Z,93047.41
2023-03-27T23:16:01.287Z,93049.31
2023-03-27T23:18:31.554Z,93047.56
2023-03-27T23:21:02.028Z,93050.81
2023-03-27T23:23:32.864Z,93050.22
2023-03-27T23:26:01.818Z,93056.13
2023-03-27T23:28:34.185Z,93058.97
2023-03-27T23:31:05.407Z,93058.00
2023-03-27T23:33:38.988Z,93055.38
2023-03-27T23:36:10.979Z,93065.50
2023-03-27T23:38:41.937Z,93056.78
2023-03-27T23:41:12.884Z,93062.69
2023-03-27T23:43:41.375Z,93060.81
2023-03-27T23:46:11.528Z,93069.72
2023-03-27T23:48:43.799Z,93071.44
2023-03-27T23:51:16.588Z,93072.38
2023-03-27T23:53:45.534Z,93089.56
2023-03-27T23:56:14.237Z,93074.88
2023-03-27T23:58:42.774Z,93072.88
